Latest Coastal Weather Observations for Proserpine

IDQ60701

Issued at 6:01 am EST Saturday 7 March 2015 (issued every 10 minutes, with the page automatically refreshed every 10 minutes)

About coastal observations | Map of coastal stations | Coastal observations for QLD | Marine services | Other Formats
Station Details ID: 033247 Name: PROSERPINE AIRPORT Lat: -20.49 Lon: 148.56 Height: 19.7 m
Data from the previous 72 hours. | See also: Recent months at Proserpine
Date/Time
EST
Temp

°C
Wind Pressure Rain
since 9am
mm
Weather Cloud Vis
km
Sea
Height
m
Swell
Dir
 
Speed
knots
Gust
knots
hPa Trend Height
m
Period
s
Dir
07/06:00am 24.8 CALM 0 2 1006.3 - 0.0 - Cloudy 10 - - - -
07/05:30am 24.7 SW 6 7 1005.8 - 0.0 - Partly cloudy 10 - - - -
07/05:00am 25.1 S 5 5 1005.7 - 0.0 - Partly cloudy 10 - - - -
07/04:30am 25.1 SE 5 6 1005.3 - 0.0 - - 10 - - - -
07/04:00am 25.0 SE 4 5 1004.7 - 0.0 - - 10 - - - -
07/03:30am 25.0 CALM 0 0 1004.4 - 0.0 - - 10 - - - -
07/03:00am 25.0 W 4 5 1004.4 - 0.0 - Cloudy 10 - - - -
07/02:30am 24.9 N 5 7 1004.5 - 0.0 - - 10 - - - -
07/02:00am 24.9 N 5 7 1004.9 - 0.0 - - 10 - - - -
07/01:30am 25.2 N 5 6 1005.3 - 0.0 - - 10 - - - -
07/01:00am 25.5 N 4 5 1005.9 - 0.0 - - 10 - - - -
07/12:30am 25.7 WNW 3 5 1006.7 - 0.0 - - 10 - - - -
07/12:00am 26.0 W 4 5 1007.3 - 0.0 - Mostly clear 10 - - - -
 
Date/Time
EST
Temp

°C
Wind Pressure Rain
since 9am
mm
Weather Cloud Vis
km
Sea
Height
m
Swell
Dir
 
Speed
knots
Gust
knots
hPa Trend Height
m
Period
s
Dir
06/11:30pm 26.2 W 4 5 1007.8 - 0.0 - - 10 - - - -
06/11:00pm 26.5 SSW 4 5 1007.8 - 0.0 - - 10 - - - -
06/10:30pm 27.1 SE 3 4 1007.7 - 0.0 - - 10 - - - -
06/10:00pm 27.2 SSE 1 4 1007.9 - 0.0 - - 10 - - - -
06/09:30pm 27.0 SE 4 5 1007.8 - 0.0 - Partly cloudy 10 - - - -
06/09:00pm 27.1 S 4 7 1007.5 - 0.0 - Partly cloudy 10 - - - -
06/08:30pm 26.9 S 3 6 1006.9 - 0.0 - - 10 - - - -
06/08:00pm 27.2 CALM 0 1 1006.4 - 0.0 - - 10 - - - -
06/07:30pm 27.3 NNE 3 5 1005.7 - 0.0 - - 10 - - - -
06/07:00pm 27.7 NNE 4 6 1004.8 - 0.0 - - 10 - - - -
06/06:30pm 28.4 N 5 7 1004.3 - 0.0 - - 10 - - - -
06/06:00pm 29.2 N 7 10 1003.8 - 0.0 - - 10 - - - -
06/05:30pm 30.7 NNE 8 11 1003.1 - 0.0 - - 10 - - - -
06/05:00pm 32.8 ESE 9 11 1003.4 - 0.0 - - 10 - - - -
06/04:30pm 33.3 ESE 10 13 1003.1 - 0.0 - - 10 - - - -
06/04:00pm 33.2 E 10 15 1003.0 - 0.0 - - 10 - - - -
06/03:30pm 34.3 ESE 11 15 1003.2 - 0.0 - - 10 - - - -
06/03:00pm 34.8 ESE 9 15 1003.4 - 0.0 - - 10 - - - -
06/02:30pm 34.5 ESE 9 13 1003.8 - 0.0 - - 10 - - - -
06/02:00pm 35.1 ESE 9 13 1004.1 - 0.0 - - 10 - - - -
06/01:30pm 34.6 E 10 13 1004.4 - 0.0 - - 10 - - - -
06/01:00pm 34.2 ESE 9 13 1005.1 - 0.0 - - 10 - - - -
06/12:30pm 33.2 ESE 8 12 1005.5 - 0.0 - - 10 - - - -
06/12:00pm 33.8 ESE 7 12 1005.7 - 0.0 - Mostly clear 10 - - - -
06/11:30am 33.9 E 5 9 1006.3 - 0.0 - - 10 - - - -
06/11:00am 32.4 ESE 6 9 1006.6 - 0.0 - - 10 - - - -
06/10:30am 33.5 NNW 6 15 1007.1 - 0.0 - Partly cloudy 10 - - - -
06/10:00am 31.7 NNE 5 8 1007.1 - 0.0 - - 10 - - - -
06/09:30am 31.1 NNW 6 9 1006.9 - 0.0 - - 10 - - - -
06/09:00am 30.7 NNW 9 12 1006.8 - 0.0 - Mostly clear 10 - - - -
06/08:30am 29.9 NW 8 14 1006.6 - 0.0 - - 10 - - - -
06/08:00am 28.6 NNW 4 6 1006.4 - 0.0 - - 10 - - - -
06/07:30am 26.3 NNW 4 6 1006.1 - 0.0 - - 10 - - - -
06/07:00am 24.1 NW 3 4 1006.0 - 0.0 - - 10 - - - -
06/06:30am 23.0 CALM 0 0 1005.8 - 0.0 - - 10 - - - -
06/06:00am 22.8 CALM 0 0 1005.6 - 0.0 - Mostly clear 10 - - - -
06/05:53am 22.8 CALM 0 2 1005.5 - 0.0 - Partly cloudy 10 - - - -
06/05:30am 23.1 CALM 0 4 1005.5 - 0.0 - Cloudy 10 - - - -
06/05:13am 23.0 CALM 0 0 1005.2 - 0.0 - Partly cloudy 10 - - - -
06/05:00am 22.8 CALM 0 0 1005.1 - 0.0 - - 10 - - - -
06/04:30am 23.1 CALM 0 0 1005.1 - 0.0 - - 10 - - - -
06/04:00am 22.9 N 1 3 1004.9 - 0.0 - - 10 - - - -
06/03:30am 23.1 CALM 0 0 1005.0 - 0.0 - - 10 - - - -
06/03:00am 23.2 CALM 0 0 1005.3 - 0.0 - Partly cloudy 10 - - - -
06/02:30am 23.4 N 3 4 1005.6 - 0.0 - - 10 - - - -
06/02:00am 23.5 SW 3 5 1006.1 - 0.0 - - 10 - - - -
06/01:30am 23.5 WSW 2 3 1006.6 - 0.0 - - 10 - - - -
06/01:00am 23.2 WNW 3 4 1007.1 - 0.0 - - 10 - - - -
06/12:30am 23.2 N 3 4 1007.5 - 0.0 - - 10 - - - -
06/12:00am 23.7 CALM 0 0 1007.9 - 0.0 - - 10 - - - -
 
Date/Time
EST
Temp

°C
Wind Pressure Rain
since 9am
mm
Weather Cloud Vis
km
Sea
Height
m
Swell
Dir
 
Speed
knots
Gust
knots
hPa Trend Height
m
Period
s
Dir
05/11:30pm 24.1 CALM 0 0 1008.1 - 0.0 - - 10 - - - -
05/11:00pm 23.9 WSW 1 3 1008.1 - 0.0 - - 10 - - - -
05/10:30pm 24.1 CALM 0 3 1007.9 - 0.0 - - 10 - - - -
05/10:00pm 24.1 NE 3 4 1007.7 - 0.0 - - 10 - - - -
05/09:30pm 24.2 N 2 4 1007.8 - 0.0 - - 10 - - - -
05/09:00pm 25.0 CALM 0 0 1007.5 - 0.0 - - 10 - - - -
05/08:30pm 25.4 CALM 0 0 1007.3 - 0.0 - - 10 - - - -
05/08:00pm 25.5 CALM 0 0 1007.0 - 0.0 - - 10 - - - -
05/07:30pm 26.1 CALM 0 0 1006.7 - 0.0 - - 10 - - - -
05/07:00pm 26.4 SSW 3 4 1006.2 - 0.0 - - 10 - - - -
05/06:30pm 27.2 SE 4 6 1006.0 - 0.0 - - 10 - - - -
05/06:00pm 28.1 ESE 5 7 1005.9 - 0.0 - - 10 - - - -
05/05:30pm 29.2 ESE 6 7 1005.7 - 0.0 - - 10 - - - -
05/05:00pm 30.1 SE 6 8 1005.8 - 0.0 - - 10 - - - -
05/04:30pm 31.3 SE 7 9 1005.7 - 0.0 - - 10 - - - -
05/04:00pm 31.0 ESE 6 10 1006.0 - 0.0 - - 10 - - - -
05/03:30pm 31.1 E 6 7 1006.3 - 0.0 - - 10 - - - -
05/03:00pm 30.9 E 7 8 1006.6 - 0.0 - Mostly clear 10 - - - -
05/02:30pm 31.8 E 9 12 1007.1 - 0.0 - - 10 - - - -
05/02:00pm 32.9 ESE 9 14 1007.7 - 0.0 - - 10 - - - -
05/01:30pm 32.6 E 9 14 1008.1 - 0.0 - - 10 - - - -
05/01:00pm 32.4 SE 10 15 1008.5 - 0.0 - Partly cloudy 10 - - - -
05/12:30pm 31.7 ESE 9 14 1009.0 - 0.0 - Partly cloudy 10 - - - -
05/12:00pm 31.4 SE 8 12 1009.6 - 0.0 - Partly cloudy 10 - - - -
05/11:30am 31.4 ESE 7 10 1010.1 - 0.0 - - 10 - - - -
05/11:00am 31.2 SE 8 12 1010.6 - 0.0 - Partly cloudy 10 - - - -
05/10:30am 30.0 ESE 5 9 1011.1 - 0.0 - Partly cloudy 10 - - - -
05/10:00am 29.1 E 6 8 1011.4 - 0.0 - Partly cloudy 10 - - - -
05/09:30am 29.6 ESE 6 10 1011.3 - 0.0 - Partly cloudy 10 - - - -
05/09:00am 29.3 ESE 8 10 1011.2 - 0.0 - Partly cloudy 10 - - - -
05/08:51am 28.5 SE 8 11 1011.1 - 0.0 - Partly cloudy 10 - - - -
05/08:33am 28.0 SSE 5 7 1011.1 - 0.0 - Partly cloudy 10 - - - -
05/08:30am 27.8 SSE 5 7 1011.1 - 0.0 - Partly cloudy 10 - - - -
05/08:06am 28.0 SSE 4 7 1011.1 - 0.0 - Partly cloudy 10 - - - -
05/08:00am 27.5 SSE 4 7 1011.0 - 0.0 - Partly cloudy 10 - - - -
05/07:30am 26.5 SSE 5 7 1010.6 - 0.0 - - 10 - - - -
05/07:00am 24.8 SSW 4 6 1010.1 - 0.0 - - 10 - - - -
05/06:30am 23.4 SSW 4 4 1009.9 - 0.0 - - 10 - - - -
05/06:00am 23.1 S 3 5 1009.6 - 0.0 - Mostly clear 10 - - - -
05/05:30am 23.3 SSW 5 5 1009.1 - 0.0 - - 10 - - - -
05/05:00am 23.4 SSW 5 6 1008.9 - 0.0 - - 10 - - - -
05/04:30am 23.5 SSW 5 6 1008.8 - 0.0 - - 10 - - - -
05/04:00am 23.7 SSW 5 6 1008.9 - 0.0 - - 10 - - - -
05/03:30am 23.9 S 5 6 1008.9 - 0.0 - - 10 - - - -
05/03:00am 24.0 S 5 5 1009.2 - 0.0 - Partly cloudy 10 - - - -
05/02:30am 24.0 S 6 7 1009.5 - 0.0 - Partly cloudy 10 - - - -
05/02:00am 24.1 SSW 5 6 1009.9 - 0.0 - - 10 - - - -
05/01:30am 24.6 S 5 7 1010.2 - 0.0 - Partly cloudy 10 - - - -
05/01:00am 24.4 SSW 5 6 1010.3 - 0.0 - Partly cloudy 10 - - - -
05/12:30am 25.0 SSE 5 6 1010.7 - 0.0 - Partly cloudy 10 - - - -
05/12:00am 25.0 S 5 8 1010.9 - 0.0 - - 10 - - - -
 
Date/Time
EST
Temp

°C
Wind Pressure Rain
since 9am
mm
Weather Cloud Vis
km
Sea
Height
m
Swell
Dir
 
Speed
knots
Gust
knots
hPa Trend Height
m
Period
s
Dir
04/11:30pm 25.0 SSW 6 7 1011.2 - 0.0 - Partly cloudy 10 - - - -
04/11:00pm 25.3 S 5 7 1011.5 - 0.0 - Partly cloudy 10 - - - -
04/10:30pm 25.6 S 5 7 1011.6 - 0.0 - Partly cloudy 10 - - - -
04/10:00pm 25.9 S 4 6 1011.7 - 0.0 - Partly cloudy 10 - - - -
04/09:30pm 26.4 ESE 3 5 1011.8 - 0.0 - Partly cloudy 10 - - - -
04/09:00pm 26.2 ESE 6 8 1011.6 - 0.0 - Mostly clear 10 - - - -
04/08:30pm 26.3 ESE 6 9 1011.2 - 0.0 - Partly cloudy 10 - - - -
04/08:00pm 26.0 ESE 6 8 1011.0 - 0.0 - - 10 - - - -
04/07:30pm 26.1 ESE 6 8 1010.6 - 0.0 - - 10 - - - -
04/07:00pm 26.4 ESE 5 7 1010.4 - 0.0 - - 10 - - - -
04/06:30pm 27.0 ESE 6 8 1010.1 - 0.0 - - 10 - - - -
04/06:00pm 28.0 ESE 10 14 1010.0 - 0.0 - - 10 - - - -
04/05:30pm 28.8 ESE 11 15 1009.8 - 0.0 - - 10 - - - -
04/05:00pm 29.3 ESE 12 17 1009.7 - 0.0 - - 10 - - - -
04/04:30pm 29.8 ESE 12 16 1009.7 - 0.0 - - 10 - - - -
04/04:00pm 30.2 ESE 13 18 1009.6 - 0.0 - - 10 - - - -
04/03:30pm 30.6 ESE 14 19 1009.7 - 0.0 - - 10 - - - -
04/03:00pm 30.6 ESE 12 18 1009.7 - 0.0 - - 10 - - - -
04/02:30pm 31.0 ESE 13 20 1009.9 - 0.0 - - 10 - - - -
04/02:00pm 30.7 E 14 21 1010.3 - 0.0 - - 10 - - - -
04/01:30pm 31.5 ESE 15 20 1010.5 - 0.0 - - 10 - - - -
04/01:00pm 30.2 ESE 14 18 1010.9 - 0.0 - Partly cloudy 10 - - - -
04/12:30pm 29.6 ESE 14 22 1011.2 - 0.0 - Partly cloudy 10 - - - -
04/12:00pm 29.4 ESE 14 21 1011.5 - 0.0 - Mostly cloudy 10 - - - -
04/11:30am 31.0 ESE 15 20 1011.7 - 0.0 - Partly cloudy 10 - - - -
04/11:00am 30.0 ESE 14 19 1012.0 - 0.0 - Partly cloudy 10 - - - -
04/10:30am 30.3 ESE 14 20 1012.0 - 0.0 - Partly cloudy 10 - - - -
04/10:00am 28.4 ESE 12 18 1012.2 - 0.0 - Partly cloudy 10 - - - -
04/09:30am 28.3 SE 14 19 1011.9 - 0.0 - Partly cloudy 10 - - - -
04/09:00am 29.5 SE 12 16 1011.8 - 0.0 - Partly cloudy 10 - - - -
04/08:30am 28.1 SSE 10 16 1011.6 - 0.0 - Partly cloudy 10 - - - -
04/08:00am 26.8 SSE 11 14 1011.6 - 0.0 - - 10 - - - -
04/07:30am 25.8 S 9 12 1011.3 - 0.0 - Partly cloudy 10 - - - -
04/07:00am 24.2 S 6 8 1011.1 - 0.0 - - 10 - - - -
04/06:30am 22.8 S 6 7 1010.8 - 0.0 - - 10 - - - -

Other Formats:

Comma delimited format used in spreadsheet applications
http://www.bom.gov.au/fwo/IDQ60701/IDQ60701.94365.axf

JavaScript Object Notation format (JSON) in row-major order
http://www.bom.gov.au/fwo/IDQ60701/IDQ60701.94365.json